sensor_id;sensor_type;location;lat;lon;timestamp;P1;durP1;ratioP1;P2;durP2;ratioP2
64199;SDS011;50516;52.272;5.136;2022-08-19T00:00:07;7.07;;;5.28;;
64199;SDS011;50516;52.272;5.136;2022-08-19T00:02:34;5.78;;;4.82;;
64199;SDS011;50516;52.272;5.136;2022-08-19T00:05:00;6.50;;;4.45;;
64199;SDS011;50516;52.272;5.136;2022-08-19T00:07:26;9.45;;;5.18;;
64199;SDS011;50516;52.272;5.136;2022-08-19T00:09:51;7.32;;;5.72;;
64199;SDS011;50516;52.272;5.136;2022-08-19T00:12:17;6.90;;;5.40;;
64199;SDS011;50516;52.272;5.136;2022-08-19T00:14:42;7.93;;;5.55;;
64199;SDS011;50516;52.272;5.136;2022-08-19T00:17:07;8.40;;;6.25;;
64199;SDS011;50516;52.272;5.136;2022-08-19T00:19:34;7.68;;;5.30;;
64199;SDS011;50516;52.272;5.136;2022-08-19T00:22:00;9.15;;;6.30;;
64199;SDS011;50516;52.272;5.136;2022-08-19T00:24:27;7.55;;;6.53;;
64199;SDS011;50516;52.272;5.136;2022-08-19T00:26:53;6.25;;;4.72;;
64199;SDS011;50516;52.272;5.136;2022-08-19T00:29:21;7.55;;;5.07;;
64199;SDS011;50516;52.272;5.136;2022-08-19T00:31:48;8.23;;;6.35;;
64199;SDS011;50516;52.272;5.136;2022-08-19T00:34:17;8.82;;;6.22;;
64199;SDS011;50516;52.272;5.136;2022-08-19T00:36:43;7.25;;;6.05;;
64199;SDS011;50516;52.272;5.136;2022-08-19T00:39:09;7.30;;;5.43;;
64199;SDS011;50516;52.272;5.136;2022-08-19T00:41:35;7.50;;;6.57;;
64199;SDS011;50516;52.272;5.136;2022-08-19T00:44:06;11.00;;;5.57;;
64199;SDS011;50516;52.272;5.136;2022-08-19T00:46:35;6.90;;;6.00;;
64199;SDS011;50516;52.272;5.136;2022-08-19T00:49:05;7.05;;;5.63;;
64199;SDS011;50516;52.272;5.136;2022-08-19T00:51:34;7.82;;;5.18;;
64199;SDS011;50516;52.272;5.136;2022-08-19T00:54:01;6.07;;;5.47;;
64199;SDS011;50516;52.272;5.136;2022-08-19T00:56:28;7.15;;;5.32;;
64199;SDS011;50516;52.272;5.136;2022-08-19T00:58:56;6.85;;;5.13;;
64199;SDS011;50516;52.272;5.136;2022-08-19T01:01:23;7.32;;;5.30;;
64199;SDS011;50516;52.272;5.136;2022-08-19T01:03:49;8.43;;;5.65;;
64199;SDS011;50516;52.272;5.136;2022-08-19T01:06:15;7.47;;;5.68;;
64199;SDS011;50516;52.272;5.136;2022-08-19T01:08:41;8.20;;;6.53;;
64199;SDS011;50516;52.272;5.136;2022-08-19T01:11:06;6.43;;;5.43;;
64199;SDS011;50516;52.272;5.136;2022-08-19T01:13:33;9.35;;;6.55;;
64199;SDS011;50516;52.272;5.136;2022-08-19T01:16:04;6.95;;;5.47;;
64199;SDS011;50516;52.272;5.136;2022-08-19T01:18:32;7.28;;;4.90;;
64199;SDS011;50516;52.272;5.136;2022-08-19T01:21:05;7.65;;;5.80;;
64199;SDS011;50516;52.272;5.136;2022-08-19T01:23:35;7.97;;;6.00;;
64199;SDS011;50516;52.272;5.136;2022-08-19T01:26:13;7.65;;;6.40;;
64199;SDS011;50516;52.272;5.136;2022-08-19T01:28:45;9.77;;;6.20;;
64199;SDS011;50516;52.272;5.136;2022-08-19T01:31:13;7.60;;;6.07;;
64199;SDS011;50516;52.272;5.136;2022-08-19T01:33:41;10.88;;;7.25;;
64199;SDS011;50516;52.272;5.136;2022-08-19T01:36:08;6.60;;;5.00;;
64199;SDS011;50516;52.272;5.136;2022-08-19T01:38:37;8.38;;;6.05;;
64199;SDS011;50516;52.272;5.136;2022-08-19T01:41:04;8.68;;;6.60;;
64199;SDS011;50516;52.272;5.136;2022-08-19T01:43:30;9.52;;;6.57;;
64199;SDS011;50516;52.272;5.136;2022-08-19T01:45:57;9.40;;;6.63;;
64199;SDS011;50516;52.272;5.136;2022-08-19T01:48:22;6.60;;;5.68;;
64199;SDS011;50516;52.272;5.136;2022-08-19T01:50:48;9.05;;;5.68;;
64199;SDS011;50516;52.272;5.136;2022-08-19T01:53:14;8.32;;;5.97;;
64199;SDS011;50516;52.272;5.136;2022-08-19T01:55:40;7.38;;;6.03;;
64199;SDS011;50516;52.272;5.136;2022-08-19T01:58:12;8.27;;;6.60;;
64199;SDS011;50516;52.272;5.136;2022-08-19T02:00:43;7.95;;;5.45;;
64199;SDS011;50516;52.272;5.136;2022-08-19T02:03:10;7.45;;;6.30;;
64199;SDS011;50516;52.272;5.136;2022-08-19T02:05:36;7.38;;;5.63;;
64199;SDS011;50516;52.272;5.136;2022-08-19T02:08:02;8.40;;;6.60;;
64199;SDS011;50516;52.272;5.136;2022-08-19T02:10:28;9.02;;;5.40;;
64199;SDS011;50516;52.272;5.136;2022-08-19T02:12:54;8.02;;;6.68;;
64199;SDS011;50516;52.272;5.136;2022-08-19T02:15:20;7.22;;;6.13;;
64199;SDS011;50516;52.272;5.136;2022-08-19T02:17:46;10.27;;;6.70;;
64199;SDS011;50516;52.272;5.136;2022-08-19T02:20:12;7.63;;;6.00;;
64199;SDS011;50516;52.272;5.136;2022-08-19T02:22:38;6.40;;;5.53;;
64199;SDS011;50516;52.272;5.136;2022-08-19T02:25:06;7.13;;;5.70;;
64199;SDS011;50516;52.272;5.136;2022-08-19T02:27:32;7.70;;;6.00;;
64199;SDS011;50516;52.272;5.136;2022-08-19T02:29:58;8.70;;;6.30;;
64199;SDS011;50516;52.272;5.136;2022-08-19T02:32:24;7.13;;;6.00;;
64199;SDS011;50516;52.272;5.136;2022-08-19T02:34:49;7.45;;;6.15;;
64199;SDS011;50516;52.272;5.136;2022-08-19T02:37:15;7.43;;;6.22;;
64199;SDS011;50516;52.272;5.136;2022-08-19T02:39:59;6.15;;;5.25;;
64199;SDS011;50516;52.272;5.136;2022-08-19T02:42:24;7.07;;;5.32;;
64199;SDS011;50516;52.272;5.136;2022-08-19T02:44:50;7.65;;;5.60;;
64199;SDS011;50516;52.272;5.136;2022-08-19T02:47:16;6.57;;;5.22;;
64199;SDS011;50516;52.272;5.136;2022-08-19T02:49:43;6.00;;;5.10;;
64199;SDS011;50516;52.272;5.136;2022-08-19T02:52:09;7.43;;;5.20;;
64199;SDS011;50516;52.272;5.136;2022-08-19T02:54:36;7.50;;;4.88;;
64199;SDS011;50516;52.272;5.136;2022-08-19T02:57:02;6.50;;;4.93;;
64199;SDS011;50516;52.272;5.136;2022-08-19T02:59:29;7.28;;;5.57;;
64199;SDS011;50516;52.272;5.136;2022-08-19T03:01:56;6.43;;;5.35;;
64199;SDS011;50516;52.272;5.136;2022-08-19T03:04:21;7.47;;;6.32;;
64199;SDS011;50516;52.272;5.136;2022-08-19T03:06:48;5.97;;;5.18;;
64199;SDS011;50516;52.272;5.136;2022-08-19T03:09:14;7.13;;;5.63;;
64199;SDS011;50516;52.272;5.136;2022-08-19T03:11:40;7.22;;;5.68;;
64199;SDS011;50516;52.272;5.136;2022-08-19T03:14:06;7.63;;;5.57;;
64199;SDS011;50516;52.272;5.136;2022-08-19T03:16:34;7.00;;;5.50;;
64199;SDS011;50516;52.272;5.136;2022-08-19T03:19:04;7.65;;;6.20;;
64199;SDS011;50516;52.272;5.136;2022-08-19T03:21:30;6.47;;;5.18;;
64199;SDS011;50516;52.272;5.136;2022-08-19T03:23:59;7.65;;;5.50;;
64199;SDS011;50516;52.272;5.136;2022-08-19T03:26:26;7.70;;;5.82;;
64199;SDS011;50516;52.272;5.136;2022-08-19T03:28:51;8.98;;;5.47;;
64199;SDS011;50516;52.272;5.136;2022-08-19T03:31:18;7.68;;;5.40;;
64199;SDS011;50516;52.272;5.136;2022-08-19T03:33:47;8.60;;;6.65;;
64199;SDS011;50516;52.272;5.136;2022-08-19T03:36:14;7.63;;;6.00;;
64199;SDS011;50516;52.272;5.136;2022-08-19T03:38:43;6.80;;;5.78;;
64199;SDS011;50516;52.272;5.136;2022-08-19T03:41:13;7.50;;;6.03;;
64199;SDS011;50516;52.272;5.136;2022-08-19T03:43:41;7.97;;;6.28;;
64199;SDS011;50516;52.272;5.136;2022-08-19T03:46:09;10.50;;;6.40;;
64199;SDS011;50516;52.272;5.136;2022-08-19T03:48:40;7.15;;;5.78;;
64199;SDS011;50516;52.272;5.136;2022-08-19T03:51:07;10.63;;;7.30;;
64199;SDS011;50516;52.272;5.136;2022-08-19T03:53:41;8.77;;;7.32;;
64199;SDS011;50516;52.272;5.136;2022-08-19T03:56:08;10.98;;;6.72;;
64199;SDS011;50516;52.272;5.136;2022-08-19T03:58:34;9.30;;;7.35;;
64199;SDS011;50516;52.272;5.136;2022-08-19T04:01:02;10.98;;;9.75;;
64199;SDS011;50516;52.272;5.136;2022-08-19T04:03:32;14.40;;;10.40;;
64199;SDS011;50516;52.272;5.136;2022-08-19T04:05:57;10.70;;;8.48;;
64199;SDS011;50516;52.272;5.136;2022-08-19T04:08:23;13.48;;;8.60;;
64199;SDS011;50516;52.272;5.136;2022-08-19T04:10:48;10.30;;;8.50;;
64199;SDS011;50516;52.272;5.136;2022-08-19T04:13:15;17.52;;;11.57;;
64199;SDS011;50516;52.272;5.136;2022-08-19T04:15:42;14.57;;;9.82;;
64199;SDS011;50516;52.272;5.136;2022-08-19T04:18:09;12.15;;;10.25;;
64199;SDS011;50516;52.272;5.136;2022-08-19T04:20:45;15.15;;;11.40;;
64199;SDS011;50516;52.272;5.136;2022-08-19T04:23:13;15.68;;;12.30;;
64199;SDS011;50516;52.272;5.136;2022-08-19T04:25:40;14.63;;;12.13;;
64199;SDS011;50516;52.272;5.136;2022-08-19T04:28:09;19.60;;;15.20;;
64199;SDS011;50516;52.272;5.136;2022-08-19T04:30:37;18.95;;;14.60;;
64199;SDS011;50516;52.272;5.136;2022-08-19T04:33:08;14.57;;;12.00;;
64199;SDS011;50516;52.272;5.136;2022-08-19T04:35:44;14.80;;;11.82;;
64199;SDS011;50516;52.272;5.136;2022-08-19T04:38:12;13.27;;;10.48;;
64199;SDS011;50516;52.272;5.136;2022-08-19T04:40:45;16.73;;;12.70;;
64199;SDS011;50516;52.272;5.136;2022-08-19T04:43:31;16.30;;;13.02;;
64199;SDS011;50516;52.272;5.136;2022-08-19T04:45:57;16.52;;;12.48;;
64199;SDS011;50516;52.272;5.136;2022-08-19T04:48:23;15.10;;;11.63;;
64199;SDS011;50516;52.272;5.136;2022-08-19T04:50:53;22.92;;;16.42;;
64199;SDS011;50516;52.272;5.136;2022-08-19T04:53:30;19.40;;;14.63;;
64199;SDS011;50516;52.272;5.136;2022-08-19T04:55:58;20.23;;;14.45;;
64199;SDS011;50516;52.272;5.136;2022-08-19T04:58:25;16.45;;;12.13;;
64199;SDS011;50516;52.272;5.136;2022-08-19T05:00:51;20.33;;;15.38;;
64199;SDS011;50516;52.272;5.136;2022-08-19T05:03:17;16.20;;;12.68;;
64199;SDS011;50516;52.272;5.136;2022-08-19T05:05:44;20.38;;;16.00;;
64199;SDS011;50516;52.272;5.136;2022-08-19T05:08:11;21.25;;;16.20;;
64199;SDS011;50516;52.272;5.136;2022-08-19T05:10:38;22.20;;;17.33;;
64199;SDS011;50516;52.272;5.136;2022-08-19T05:13:04;19.00;;;14.93;;
64199;SDS011;50516;52.272;5.136;2022-08-19T05:15:30;31.75;;;22.45;;
64199;SDS011;50516;52.272;5.136;2022-08-19T05:17:55;25.13;;;19.02;;
64199;SDS011;50516;52.272;5.136;2022-08-19T05:20:40;23.73;;;18.63;;
64199;SDS011;50516;52.272;5.136;2022-08-19T05:23:24;34.03;;;22.17;;
64199;SDS011;50516;52.272;5.136;2022-08-19T05:25:50;36.40;;;24.17;;
64199;SDS011;50516;52.272;5.136;2022-08-19T05:28:17;30.63;;;21.98;;
64199;SDS011;50516;52.272;5.136;2022-08-19T05:30:43;30.33;;;21.95;;
64199;SDS011;50516;52.272;5.136;2022-08-19T05:33:09;34.75;;;25.10;;
64199;SDS011;50516;52.272;5.136;2022-08-19T05:35:36;33.58;;;24.52;;
64199;SDS011;50516;52.272;5.136;2022-08-19T05:38:03;34.58;;;25.27;;
64199;SDS011;50516;52.272;5.136;2022-08-19T05:40:28;32.25;;;23.52;;
64199;SDS011;50516;52.272;5.136;2022-08-19T05:42:58;30.27;;;23.33;;
64199;SDS011;50516;52.272;5.136;2022-08-19T05:45:23;37.47;;;27.00;;
64199;SDS011;50516;52.272;5.136;2022-08-19T05:47:49;36.03;;;27.05;;
64199;SDS011;50516;52.272;5.136;2022-08-19T05:50:14;39.78;;;27.45;;
64199;SDS011;50516;52.272;5.136;2022-08-19T05:52:41;39.22;;;27.27;;
64199;SDS011;50516;52.272;5.136;2022-08-19T05:55:06;32.35;;;24.15;;
64199;SDS011;50516;52.272;5.136;2022-08-19T05:57:32;32.45;;;24.63;;
64199;SDS011;50516;52.272;5.136;2022-08-19T05:59:57;36.97;;;26.70;;
64199;SDS011;50516;52.272;5.136;2022-08-19T06:02:28;34.08;;;26.50;;
64199;SDS011;50516;52.272;5.136;2022-08-19T06:04:55;27.60;;;20.65;;
64199;SDS011;50516;52.272;5.136;2022-08-19T06:07:20;38.08;;;27.27;;
64199;SDS011;50516;52.272;5.136;2022-08-19T06:09:46;46.55;;;28.88;;
64199;SDS011;50516;52.272;5.136;2022-08-19T06:12:11;31.27;;;24.30;;
64199;SDS011;50516;52.272;5.136;2022-08-19T06:14:37;28.70;;;21.20;;
64199;SDS011;50516;52.272;5.136;2022-08-19T06:17:02;48.13;;;31.48;;
64199;SDS011;50516;52.272;5.136;2022-08-19T06:19:28;54.10;;;33.70;;
64199;SDS011;50516;52.272;5.136;2022-08-19T06:21:58;46.90;;;31.08;;
64199;SDS011;50516;52.272;5.136;2022-08-19T06:24:26;56.70;;;33.17;;
64199;SDS011;50516;52.272;5.136;2022-08-19T06:26:54;46.65;;;30.02;;
64199;SDS011;50516;52.272;5.136;2022-08-19T06:29:21;65.68;;;39.00;;
64199;SDS011;50516;52.272;5.136;2022-08-19T06:31:49;66.20;;;38.35;;
64199;SDS011;50516;52.272;5.136;2022-08-19T06:34:16;62.17;;;37.35;;
64199;SDS011;50516;52.272;5.136;2022-08-19T06:36:43;63.28;;;36.22;;
64199;SDS011;50516;52.272;5.136;2022-08-19T06:39:11;67.82;;;38.67;;
64199;SDS011;50516;52.272;5.136;2022-08-19T06:41:40;66.07;;;36.55;;
64199;SDS011;50516;52.272;5.136;2022-08-19T06:44:10;73.35;;;38.83;;
64199;SDS011;50516;52.272;5.136;2022-08-19T06:46:36;66.85;;;36.67;;
64199;SDS011;50516;52.272;5.136;2022-08-19T06:49:02;72.43;;;37.05;;
64199;SDS011;50516;52.272;5.136;2022-08-19T06:51:29;77.30;;;39.45;;
64199;SDS011;50516;52.272;5.136;2022-08-19T06:53:56;76.43;;;39.17;;
64199;SDS011;50516;52.272;5.136;2022-08-19T06:56:24;76.35;;;39.03;;
64199;SDS011;50516;52.272;5.136;2022-08-19T06:59:03;66.82;;;37.88;;
64199;SDS011;50516;52.272;5.136;2022-08-19T07:01:36;70.20;;;39.10;;
64199;SDS011;50516;52.272;5.136;2022-08-19T07:04:04;82.65;;;40.20;;
64199;SDS011;50516;52.272;5.136;2022-08-19T07:06:30;80.15;;;41.75;;
64199;SDS011;50516;52.272;5.136;2022-08-19T07:08:56;78.70;;;41.38;;
64199;SDS011;50516;52.272;5.136;2022-08-19T07:11:23;76.22;;;41.20;;
64199;SDS011;50516;52.272;5.136;2022-08-19T07:13:48;72.75;;;40.47;;
64199;SDS011;50516;52.272;5.136;2022-08-19T07:16:16;77.63;;;40.90;;
64199;SDS011;50516;52.272;5.136;2022-08-19T07:18:50;79.57;;;40.10;;
64199;SDS011;50516;52.272;5.136;2022-08-19T07:21:17;72.10;;;39.20;;
64199;SDS011;50516;52.272;5.136;2022-08-19T07:23:45;68.95;;;41.22;;
64199;SDS011;50516;52.272;5.136;2022-08-19T07:26:15;72.15;;;41.47;;
64199;SDS011;50516;52.272;5.136;2022-08-19T07:28:44;73.68;;;41.28;;
64199;SDS011;50516;52.272;5.136;2022-08-19T07:31:11;79.85;;;41.95;;
64199;SDS011;50516;52.272;5.136;2022-08-19T07:33:38;77.80;;;42.78;;
64199;SDS011;50516;52.272;5.136;2022-08-19T07:36:05;80.38;;;42.88;;
64199;SDS011;50516;52.272;5.136;2022-08-19T07:38:33;75.82;;;42.95;;
64199;SDS011;50516;52.272;5.136;2022-08-19T07:40:59;75.32;;;42.70;;
64199;SDS011;50516;52.272;5.136;2022-08-19T07:43:25;72.53;;;41.97;;
64199;SDS011;50516;52.272;5.136;2022-08-19T07:45:52;73.28;;;41.45;;
64199;SDS011;50516;52.272;5.136;2022-08-19T07:48:22;71.18;;;38.85;;
64199;SDS011;50516;52.272;5.136;2022-08-19T07:50:51;65.72;;;40.53;;
64199;SDS011;50516;52.272;5.136;2022-08-19T07:53:17;69.60;;;42.15;;
64199;SDS011;50516;52.272;5.136;2022-08-19T07:55:43;67.43;;;41.17;;
64199;SDS011;50516;52.272;5.136;2022-08-19T07:58:09;64.93;;;39.15;;
64199;SDS011;50516;52.272;5.136;2022-08-19T08:00:36;56.15;;;35.20;;
64199;SDS011;50516;52.272;5.136;2022-08-19T08:03:01;61.88;;;38.03;;
64199;SDS011;50516;52.272;5.136;2022-08-19T08:05:27;58.85;;;38.75;;
64199;SDS011;50516;52.272;5.136;2022-08-19T08:08:11;66.20;;;38.53;;
64199;SDS011;50516;52.272;5.136;2022-08-19T08:10:56;59.45;;;36.35;;
64199;SDS011;50516;52.272;5.136;2022-08-19T08:13:21;56.63;;;36.72;;
64199;SDS011;50516;52.272;5.136;2022-08-19T08:15:46;56.60;;;36.58;;
64199;SDS011;50516;52.272;5.136;2022-08-19T08:18:12;49.78;;;32.78;;
64199;SDS011;50516;52.272;5.136;2022-08-19T08:20:38;52.25;;;34.55;;
64199;SDS011;50516;52.272;5.136;2022-08-19T08:23:03;48.45;;;33.90;;
64199;SDS011;50516;52.272;5.136;2022-08-19T08:25:47;46.13;;;32.95;;
64199;SDS011;50516;52.272;5.136;2022-08-19T08:28:13;48.47;;;32.70;;
64199;SDS011;50516;52.272;5.136;2022-08-19T08:30:39;45.30;;;32.45;;
64199;SDS011;50516;52.272;5.136;2022-08-19T08:33:07;42.50;;;32.50;;
64199;SDS011;50516;52.272;5.136;2022-08-19T08:35:33;44.17;;;30.50;;
64199;SDS011;50516;52.272;5.136;2022-08-19T08:37:58;38.90;;;27.88;;
64199;SDS011;50516;52.272;5.136;2022-08-19T08:43:09;42.50;;;29.48;;
64199;SDS011;50516;52.272;5.136;2022-08-19T08:46:17;42.33;;;29.35;;
64199;SDS011;50516;52.272;5.136;2022-08-19T08:48:48;41.72;;;28.60;;
64199;SDS011;50516;52.272;5.136;2022-08-19T08:51:20;41.55;;;27.77;;
64199;SDS011;50516;52.272;5.136;2022-08-19T08:53:52;46.83;;;29.23;;
64199;SDS011;50516;52.272;5.136;2022-08-19T08:56:19;49.17;;;31.35;;
64199;SDS011;50516;52.272;5.136;2022-08-19T09:01:22;41.65;;;30.15;;
64199;SDS011;50516;52.272;5.136;2022-08-19T09:03:47;42.25;;;26.73;;
64199;SDS011;50516;52.272;5.136;2022-08-19T09:06:23;39.88;;;28.17;;
64199;SDS011;50516;52.272;5.136;2022-08-19T09:09:12;39.85;;;27.00;;
64199;SDS011;50516;52.272;5.136;2022-08-19T09:12:05;44.90;;;33.78;;
64199;SDS011;50516;52.272;5.136;2022-08-19T09:14:47;51.05;;;37.15;;
64199;SDS011;50516;52.272;5.136;2022-08-19T09:17:26;49.30;;;32.53;;
64199;SDS011;50516;52.272;5.136;2022-08-19T09:22:24;44.50;;;35.63;;
64199;SDS011;50516;52.272;5.136;2022-08-19T09:24:51;48.33;;;35.08;;
64199;SDS011;50516;52.272;5.136;2022-08-19T09:27:19;51.70;;;35.78;;
64199;SDS011;50516;52.272;5.136;2022-08-19T09:29:45;47.08;;;33.90;;
64199;SDS011;50516;52.272;5.136;2022-08-19T09:32:13;43.35;;;31.67;;
64199;SDS011;50516;52.272;5.136;2022-08-19T09:34:39;38.88;;;30.20;;
64199;SDS011;50516;52.272;5.136;2022-08-19T09:37:04;40.58;;;28.25;;
64199;SDS011;50516;52.272;5.136;2022-08-19T09:39:30;34.30;;;27.67;;
64199;SDS011;50516;52.272;5.136;2022-08-19T09:41:56;37.40;;;26.42;;
64199;SDS011;50516;52.272;5.136;2022-08-19T09:44:21;35.25;;;26.42;;
64199;SDS011;50516;52.272;5.136;2022-08-19T09:46:46;40.58;;;29.08;;
64199;SDS011;50516;52.272;5.136;2022-08-19T09:49:12;36.30;;;28.50;;
64199;SDS011;50516;52.272;5.136;2022-08-19T09:51:37;38.15;;;26.90;;
64199;SDS011;50516;52.272;5.136;2022-08-19T09:54:03;31.95;;;24.27;;
64199;SDS011;50516;52.272;5.136;2022-08-19T09:56:29;33.60;;;26.42;;
64199;SDS011;50516;52.272;5.136;2022-08-19T09:58:57;34.28;;;25.92;;
64199;SDS011;50516;52.272;5.136;2022-08-19T10:01:24;29.25;;;22.38;;
64199;SDS011;50516;52.272;5.136;2022-08-19T10:03:53;28.75;;;20.85;;
64199;SDS011;50516;52.272;5.136;2022-08-19T10:06:20;33.10;;;22.50;;
64199;SDS011;50516;52.272;5.136;2022-08-19T10:08:48;31.27;;;23.08;;
64199;SDS011;50516;52.272;5.136;2022-08-19T10:11:13;31.13;;;22.77;;
64199;SDS011;50516;52.272;5.136;2022-08-19T10:13:41;32.50;;;22.63;;
64199;SDS011;50516;52.272;5.136;2022-08-19T10:16:09;31.83;;;23.63;;
64199;SDS011;50516;52.272;5.136;2022-08-19T10:18:38;24.10;;;18.65;;
64199;SDS011;50516;52.272;5.136;2022-08-19T10:21:05;30.08;;;21.58;;
64199;SDS011;50516;52.272;5.136;2022-08-19T10:23:34;25.42;;;20.25;;
64199;SDS011;50516;52.272;5.136;2022-08-19T10:26:05;22.73;;;17.88;;
64199;SDS011;50516;52.272;5.136;2022-08-19T10:28:32;26.40;;;17.58;;
64199;SDS011;50516;52.272;5.136;2022-08-19T10:31:02;22.35;;;14.35;;
64199;SDS011;50516;52.272;5.136;2022-08-19T10:33:29;31.85;;;21.02;;
64199;SDS011;50516;52.272;5.136;2022-08-19T10:36:06;26.55;;;19.17;;
64199;SDS011;50516;52.272;5.136;2022-08-19T10:38:34;25.35;;;18.23;;
64199;SDS011;50516;52.272;5.136;2022-08-19T10:41:11;25.35;;;17.30;;
64199;SDS011;50516;52.272;5.136;2022-08-19T10:43:38;25.10;;;20.02;;
64199;SDS011;50516;52.272;5.136;2022-08-19T10:46:08;21.88;;;15.55;;
64199;SDS011;50516;52.272;5.136;2022-08-19T10:48:35;24.80;;;17.60;;
64199;SDS011;50516;52.272;5.136;2022-08-19T10:51:01;24.92;;;18.85;;
64199;SDS011;50516;52.272;5.136;2022-08-19T10:53:46;19.20;;;12.87;;
64199;SDS011;50516;52.272;5.136;2022-08-19T10:56:11;24.42;;;16.83;;
64199;SDS011;50516;52.272;5.136;2022-08-19T10:58:55;25.55;;;15.93;;
64199;SDS011;50516;52.272;5.136;2022-08-19T11:01:22;18.23;;;13.63;;
64199;SDS011;50516;52.272;5.136;2022-08-19T11:03:48;21.67;;;14.80;;
64199;SDS011;50516;52.272;5.136;2022-08-19T11:06:15;33.10;;;17.08;;
64199;SDS011;50516;52.272;5.136;2022-08-19T11:08:40;36.85;;;15.52;;
64199;SDS011;50516;52.272;5.136;2022-08-19T11:11:06;24.73;;;16.02;;
64199;SDS011;50516;52.272;5.136;2022-08-19T11:13:34;24.15;;;16.30;;
64199;SDS011;50516;52.272;5.136;2022-08-19T11:16:21;25.85;;;15.73;;
64199;SDS011;50516;52.272;5.136;2022-08-19T11:18:49;28.55;;;16.05;;
64199;SDS011;50516;52.272;5.136;2022-08-19T11:21:18;22.00;;;15.20;;
64199;SDS011;50516;52.272;5.136;2022-08-19T11:23:48;24.25;;;17.65;;
64199;SDS011;50516;52.272;5.136;2022-08-19T11:26:15;26.38;;;18.45;;
64199;SDS011;50516;52.272;5.136;2022-08-19T11:28:42;23.25;;;18.05;;
64199;SDS011;50516;52.272;5.136;2022-08-19T11:31:11;21.13;;;15.95;;
64199;SDS011;50516;52.272;5.136;2022-08-19T11:33:39;32.33;;;20.42;;
64199;SDS011;50516;52.272;5.136;2022-08-19T11:36:05;22.85;;;16.08;;
64199;SDS011;50516;52.272;5.136;2022-08-19T11:38:30;22.83;;;17.52;;
64199;SDS011;50516;52.272;5.136;2022-08-19T11:40:56;27.23;;;17.13;;
64199;SDS011;50516;52.272;5.136;2022-08-19T11:43:23;21.00;;;16.60;;
64199;SDS011;50516;52.272;5.136;2022-08-19T11:45:51;16.98;;;13.23;;
64199;SDS011;50516;52.272;5.136;2022-08-19T11:48:17;19.15;;;12.52;;
64199;SDS011;50516;52.272;5.136;2022-08-19T11:50:46;17.95;;;12.23;;
64199;SDS011;50516;52.272;5.136;2022-08-19T11:53:13;18.13;;;13.15;;
64199;SDS011;50516;52.272;5.136;2022-08-19T11:55:38;15.93;;;11.00;;
64199;SDS011;50516;52.272;5.136;2022-08-19T11:58:04;19.98;;;13.82;;
64199;SDS011;50516;52.272;5.136;2022-08-19T12:00:31;23.00;;;11.10;;
64199;SDS011;50516;52.272;5.136;2022-08-19T12:02:58;18.33;;;11.57;;
64199;SDS011;50516;52.272;5.136;2022-08-19T12:05:23;17.45;;;11.85;;
64199;SDS011;50516;52.272;5.136;2022-08-19T12:07:48;23.17;;;13.75;;
64199;SDS011;50516;52.272;5.136;2022-08-19T12:10:14;19.58;;;13.48;;
64199;SDS011;50516;52.272;5.136;2022-08-19T12:12:40;24.23;;;15.35;;
64199;SDS011;50516;52.272;5.136;2022-08-19T12:15:07;17.30;;;11.60;;
64199;SDS011;50516;52.272;5.136;2022-08-19T12:17:34;19.15;;;12.98;;
64199;SDS011;50516;52.272;5.136;2022-08-19T12:19:59;19.83;;;13.27;;
64199;SDS011;50516;52.272;5.136;2022-08-19T12:22:25;18.98;;;13.45;;
64199;SDS011;50516;52.272;5.136;2022-08-19T12:24:54;15.13;;;10.45;;
64199;SDS011;50516;52.272;5.136;2022-08-19T12:27:20;14.88;;;9.70;;
64199;SDS011;50516;52.272;5.136;2022-08-19T12:29:45;10.75;;;9.07;;
64199;SDS011;50516;52.272;5.136;2022-08-19T12:32:11;10.73;;;8.90;;
64199;SDS011;50516;52.272;5.136;2022-08-19T12:34:36;10.85;;;8.88;;
64199;SDS011;50516;52.272;5.136;2022-08-19T12:37:03;11.02;;;9.00;;
64199;SDS011;50516;52.272;5.136;2022-08-19T12:39:33;10.85;;;7.50;;
64199;SDS011;50516;52.272;5.136;2022-08-19T12:41:59;11.27;;;8.70;;
64199;SDS011;50516;52.272;5.136;2022-08-19T12:44:24;14.13;;;10.02;;
64199;SDS011;50516;52.272;5.136;2022-08-19T12:46:49;12.57;;;9.43;;
64199;SDS011;50516;52.272;5.136;2022-08-19T12:49:15;10.48;;;8.45;;
64199;SDS011;50516;52.272;5.136;2022-08-19T12:51:41;10.90;;;7.95;;
64199;SDS011;50516;52.272;5.136;2022-08-19T12:54:07;9.85;;;7.22;;
64199;SDS011;50516;52.272;5.136;2022-08-19T12:56:33;11.88;;;8.00;;
64199;SDS011;50516;52.272;5.136;2022-08-19T12:59:00;8.85;;;6.70;;
64199;SDS011;50516;52.272;5.136;2022-08-19T13:01:26;10.23;;;7.45;;
64199;SDS011;50516;52.272;5.136;2022-08-19T13:03:54;9.07;;;7.03;;
64199;SDS011;50516;52.272;5.136;2022-08-19T13:06:19;9.00;;;6.45;;
64199;SDS011;50516;52.272;5.136;2022-08-19T13:08:45;11.38;;;7.82;;
64199;SDS011;50516;52.272;5.136;2022-08-19T13:11:11;12.25;;;8.27;;
64199;SDS011;50516;52.272;5.136;2022-08-19T13:13:40;9.43;;;6.80;;
64199;SDS011;50516;52.272;5.136;2022-08-19T13:16:07;11.32;;;7.65;;
64199;SDS011;50516;52.272;5.136;2022-08-19T13:18:35;11.85;;;6.90;;
64199;SDS011;50516;52.272;5.136;2022-08-19T13:21:02;13.27;;;8.73;;
64199;SDS011;50516;52.272;5.136;2022-08-19T13:23:29;12.15;;;7.75;;
64199;SDS011;50516;52.272;5.136;2022-08-19T13:26:04;15.52;;;10.50;;
64199;SDS011;50516;52.272;5.136;2022-08-19T13:28:31;14.05;;;9.65;;
64199;SDS011;50516;52.272;5.136;2022-08-19T13:31:19;11.63;;;8.57;;
64199;SDS011;50516;52.272;5.136;2022-08-19T13:34:04;13.82;;;8.63;;
64199;SDS011;50516;52.272;5.136;2022-08-19T13:36:31;10.07;;;6.40;;
64199;SDS011;50516;52.272;5.136;2022-08-19T13:38:57;9.30;;;6.72;;
64199;SDS011;50516;52.272;5.136;2022-08-19T13:41:22;9.93;;;6.50;;
64199;SDS011;50516;52.272;5.136;2022-08-19T13:43:48;13.10;;;7.53;;
64199;SDS011;50516;52.272;5.136;2022-08-19T13:46:14;9.18;;;5.57;;
64199;SDS011;50516;52.272;5.136;2022-08-19T13:48:39;7.28;;;5.57;;
64199;SDS011;50516;52.272;5.136;2022-08-19T13:51:08;9.15;;;5.47;;
64199;SDS011;50516;52.272;5.136;2022-08-19T13:53:35;8.63;;;5.50;;
64199;SDS011;50516;52.272;5.136;2022-08-19T13:56:06;7.40;;;5.18;;
64199;SDS011;50516;52.272;5.136;2022-08-19T13:58:36;10.15;;;5.65;;
64199;SDS011;50516;52.272;5.136;2022-08-19T14:01:03;8.13;;;5.70;;
64199;SDS011;50516;52.272;5.136;2022-08-19T14:03:29;6.80;;;5.38;;
64199;SDS011;50516;52.272;5.136;2022-08-19T14:05:55;8.40;;;4.75;;
64199;SDS011;50516;52.272;5.136;2022-08-19T14:08:21;8.20;;;4.97;;
64199;SDS011;50516;52.272;5.136;2022-08-19T14:10:47;5.45;;;3.90;;
64199;SDS011;50516;52.272;5.136;2022-08-19T14:13:15;9.13;;;3.92;;
64199;SDS011;50516;52.272;5.136;2022-08-19T14:15:42;6.75;;;4.00;;
64199;SDS011;50516;52.272;5.136;2022-08-19T14:18:08;5.22;;;3.25;;
64199;SDS011;50516;52.272;5.136;2022-08-19T14:20:34;6.13;;;3.33;;
64199;SDS011;50516;52.272;5.136;2022-08-19T14:23:00;5.38;;;3.38;;
64199;SDS011;50516;52.272;5.136;2022-08-19T14:25:26;5.43;;;3.10;;
64199;SDS011;50516;52.272;5.136;2022-08-19T14:27:53;7.00;;;3.70;;
64199;SDS011;50516;52.272;5.136;2022-08-19T14:30:21;8.25;;;3.28;;
64199;SDS011;50516;52.272;5.136;2022-08-19T14:32:51;4.15;;;2.83;;
64199;SDS011;50516;52.272;5.136;2022-08-19T14:35:17;6.90;;;3.30;;
64199;SDS011;50516;52.272;5.136;2022-08-19T14:37:43;5.88;;;3.10;;
64199;SDS011;50516;52.272;5.136;2022-08-19T14:40:09;5.15;;;2.80;;
64199;SDS011;50516;52.272;5.136;2022-08-19T14:42:36;5.57;;;3.20;;